createdAt,value
2018-12-07T00:00:11.943Z,92.70
2018-12-07T00:02:38.147Z,92.80
2018-12-07T00:05:04.630Z,92.70
2018-12-07T00:07:30.887Z,92.70
2018-12-07T00:09:57.124Z,92.70
2018-12-07T00:12:23.311Z,92.80
2018-12-07T00:14:49.594Z,92.80
2018-12-07T00:17:15.802Z,92.80
2018-12-07T00:19:47.897Z,92.90
2018-12-07T00:22:10.115Z,92.90
2018-12-07T00:24:36.272Z,92.90
2018-12-07T00:27:02.655Z,92.90
2018-12-07T00:29:28.987Z,92.80
2018-12-07T00:31:55.172Z,92.80
2018-12-07T00:34:21.345Z,92.80
2018-12-07T00:36:47.575Z,92.80
2018-12-07T00:39:13.708Z,92.80
2018-12-07T00:41:39.857Z,92.80
2018-12-07T00:44:06.012Z,92.80
2018-12-07T00:46:32.292Z,92.80
2018-12-07T00:48:58.431Z,92.80
2018-12-07T00:51:24.698Z,92.90
2018-12-07T00:53:50.939Z,92.90
2018-12-07T00:56:17.108Z,92.80
2018-12-07T00:58:43.232Z,92.80
2018-12-07T01:01:09.499Z,92.80
2018-12-07T01:03:35.657Z,92.80
2018-12-07T01:06:01.915Z,92.80
2018-12-07T01:08:28.081Z,92.80
2018-12-07T01:10:54.267Z,92.30
2018-12-07T01:13:20.386Z,92.20
2018-12-07T01:15:46.546Z,92.10
2018-12-07T01:18:12.695Z,92.10
2018-12-07T01:20:38.874Z,92.00
2018-12-07T01:23:05.021Z,92.00
2018-12-07T01:25:31.198Z,91.90
2018-12-07T01:27:57.364Z,92.00
2018-12-07T01:30:23.761Z,91.80
2018-12-07T01:32:49.999Z,91.80
2018-12-07T01:35:16.166Z,91.90
2018-12-07T01:37:42.307Z,91.90
2018-12-07T01:40:08.623Z,91.90
2018-12-07T01:42:34.768Z,91.80
2018-12-07T01:45:01.143Z,91.80
2018-12-07T01:47:27.291Z,91.70
2018-12-07T01:49:53.422Z,91.70
2018-12-07T01:52:19.612Z,91.70
2018-12-07T01:54:45.830Z,91.70
2018-12-07T01:57:11.983Z,91.70
2018-12-07T01:59:38.135Z,91.80
2018-12-07T02:02:04.359Z,91.80
2018-12-07T02:04:30.521Z,91.70
2018-12-07T02:06:56.779Z,91.70
2018-12-07T02:09:22.993Z,91.80
2018-12-07T02:11:49.204Z,91.90
2018-12-07T02:14:15.354Z,91.80
2018-12-07T02:16:41.538Z,91.80
2018-12-07T02:19:07.743Z,91.80
2018-12-07T02:21:33.907Z,91.70
2018-12-07T02:24:00.067Z,91.80
2018-12-07T02:26:26.292Z,92.10
2018-12-07T02:28:52.443Z,91.90
2018-12-07T02:31:18.632Z,91.90
2018-12-07T02:33:44.791Z,92.00
2018-12-07T02:36:10.952Z,92.20
2018-12-07T02:38:37.106Z,92.20
2018-12-07T02:41:03.384Z,92.20
2018-12-07T02:43:29.611Z,92.20
2018-12-07T02:45:55.773Z,92.20
2018-12-07T02:48:21.944Z,92.50
2018-12-07T02:50:48.121Z,92.20
2018-12-07T02:53:14.283Z,92.20
2018-12-07T02:55:40.436Z,92.30
2018-12-07T02:58:06.608Z,92.30
2018-12-07T03:00:32.922Z,92.30
2018-12-07T03:02:59.108Z,92.40
2018-12-07T03:05:25.283Z,92.30
2018-12-07T03:07:51.459Z,92.30
2018-12-07T03:10:17.607Z,92.30
2018-12-07T03:12:43.759Z,92.30
2018-12-07T03:15:10.052Z,92.30
2018-12-07T03:17:36.247Z,92.20
2018-12-07T03:20:03.431Z,92.30
2018-12-07T03:22:29.657Z,92.30
2018-12-07T03:24:55.800Z,92.30
2018-12-07T03:27:21.976Z,92.30
2018-12-07T03:29:49.169Z,92.40
2018-12-07T03:32:15.360Z,92.40
2018-12-07T03:34:41.516Z,92.40
2018-12-07T03:37:07.837Z,92.30
2018-12-07T03:39:34.096Z,92.40
2018-12-07T03:42:00.611Z,92.40
2018-12-07T03:44:26.779Z,92.40
2018-12-07T03:46:53.099Z,92.40
2018-12-07T03:49:19.247Z,92.40
2018-12-07T03:51:45.402Z,92.40
2018-12-07T03:54:11.572Z,92.40
2018-12-07T03:56:37.860Z,92.30
2018-12-07T03:59:04.053Z,92.20
2018-12-07T04:01:30.312Z,92.20
2018-12-07T04:03:56.489Z,92.30
2018-12-07T04:06:22.776Z,92.20
2018-12-07T04:08:48.963Z,92.20
2018-12-07T04:11:15.124Z,92.10
2018-12-07T04:13:41.289Z,92.10
2018-12-07T04:16:07.461Z,92.00
2018-12-07T04:18:33.752Z,91.90
2018-12-07T04:20:59.904Z,91.80
2018-12-07T04:23:26.076Z,91.70
2018-12-07T04:25:52.371Z,91.60
2018-12-07T04:28:18.535Z,91.50
2018-12-07T04:30:44.710Z,91.50
2018-12-07T04:33:11.047Z,91.40
2018-12-07T04:35:37.377Z,91.00
2018-12-07T04:38:03.575Z,91.20
2018-12-07T04:40:29.826Z,91.10
2018-12-07T04:42:55.981Z,91.00
2018-12-07T04:45:22.251Z,91.10
2018-12-07T04:47:48.518Z,91.00
2018-12-07T04:50:14.684Z,91.10
2018-12-07T04:52:40.916Z,91.00
2018-12-07T04:55:07.307Z,90.90
2018-12-07T04:57:33.509Z,90.90
2018-12-07T04:59:59.664Z,91.00
2018-12-07T05:02:25.856Z,90.80
2018-12-07T05:04:52.008Z,90.90
2018-12-07T05:07:18.174Z,90.80
2018-12-07T05:09:44.321Z,90.80
2018-12-07T05:12:11.046Z,90.80
2018-12-07T05:14:37.232Z,90.80
2018-12-07T05:17:03.388Z,90.90
2018-12-07T05:19:29.554Z,90.90
2018-12-07T05:21:55.733Z,90.90
2018-12-07T05:24:22.140Z,90.80
2018-12-07T05:26:48.414Z,90.80
2018-12-07T05:29:14.570Z,90.80
2018-12-07T05:31:40.719Z,90.70
2018-12-07T05:34:06.963Z,90.70
2018-12-07T05:36:33.119Z,90.80
2018-12-07T05:38:59.301Z,90.70
2018-12-07T05:41:25.488Z,90.70
2018-12-07T05:43:54.299Z,90.70
2018-12-07T05:46:20.549Z,90.70
2018-12-07T05:48:46.703Z,90.60
2018-12-07T05:51:12.875Z,90.60
2018-12-07T05:53:39.049Z,90.50
2018-12-07T05:56:05.211Z,90.50
2018-12-07T05:58:31.492Z,90.50
2018-12-07T06:00:57.654Z,90.50
2018-12-07T06:03:23.833Z,90.50
2018-12-07T06:05:49.989Z,90.40
2018-12-07T06:08:16.171Z,90.50
2018-12-07T06:10:42.355Z,90.30
2018-12-07T06:13:08.551Z,90.20
2018-12-07T06:15:34.703Z,90.10
2018-12-07T06:18:00.854Z,90.10
2018-12-07T06:20:27.007Z,90.00
2018-12-07T06:22:53.191Z,90.00
2018-12-07T06:25:19.368Z,90.20
2018-12-07T06:27:45.628Z,89.80
2018-12-07T06:30:11.960Z,89.80
2018-12-07T06:32:38.127Z,89.60
2018-12-07T06:35:04.570Z,89.20
2018-12-07T06:37:30.827Z,89.20
2018-12-07T06:39:57.155Z,89.20
2018-12-07T06:42:23.377Z,89.10
2018-12-07T06:44:49.549Z,89.20
2018-12-07T06:47:15.764Z,89.20
2018-12-07T06:49:41.939Z,88.90
2018-12-07T06:52:08.144Z,88.80
2018-12-07T06:54:34.368Z,88.90
2018-12-07T06:57:00.505Z,88.80
2018-12-07T06:59:26.673Z,88.90
2018-12-07T07:01:52.836Z,88.80
2018-12-07T07:04:19.117Z,88.80
2018-12-07T07:06:45.362Z,88.70
2018-12-07T07:09:11.588Z,89.20
2018-12-07T07:11:37.726Z,88.90
2018-12-07T07:14:03.929Z,89.20
2018-12-07T07:16:30.271Z,89.00
2018-12-07T07:18:56.423Z,89.10
2018-12-07T07:21:22.595Z,89.00
2018-12-07T07:23:48.779Z,89.00
2018-12-07T07:26:14.924Z,88.90
2018-12-07T07:28:41.097Z,88.90
2018-12-07T07:31:07.259Z,88.70
2018-12-07T07:33:33.432Z,88.40
2018-12-07T07:35:59.570Z,88.50
2018-12-07T07:38:25.716Z,88.40
2018-12-07T07:40:51.957Z,88.20
2018-12-07T07:43:18.114Z,88.20
2018-12-07T07:45:44.411Z,88.20
2018-12-07T07:48:10.567Z,87.40
2018-12-07T07:50:36.737Z,86.20
2018-12-07T07:53:02.903Z,86.40
2018-12-07T07:55:29.048Z,86.10
2018-12-07T07:57:55.227Z,85.30
2018-12-07T08:00:21.409Z,84.60
2018-12-07T08:02:47.545Z,84.10
2018-12-07T08:05:13.713Z,83.30
2018-12-07T08:07:40.062Z,83.20
2018-12-07T08:10:06.448Z,82.70
2018-12-07T08:12:32.598Z,81.70
2018-12-07T08:14:58.796Z,82.40
2018-12-07T08:17:24.979Z,81.80
2018-12-07T08:19:51.187Z,80.90
2018-12-07T08:22:17.593Z,80.20
2018-12-07T08:24:43.748Z,79.90
2018-12-07T08:27:09.916Z,79.30
2018-12-07T08:29:36.085Z,78.50
2018-12-07T08:32:02.251Z,78.90
2018-12-07T08:34:28.432Z,79.50
2018-12-07T08:36:54.620Z,78.60
2018-12-07T08:39:20.811Z,78.80
2018-12-07T08:41:46.941Z,78.50
2018-12-07T08:44:13.148Z,78.40
2018-12-07T08:46:39.295Z,79.00
2018-12-07T08:49:05.464Z,79.00
2018-12-07T08:51:31.659Z,78.40
2018-12-07T08:53:57.891Z,78.90
2018-12-07T08:56:24.186Z,79.60
2018-12-07T08:58:50.368Z,79.20
2018-12-07T09:01:16.529Z,79.70
2018-12-07T09:03:43.123Z,78.90
2018-12-07T09:06:09.368Z,77.80
2018-12-07T09:08:35.519Z,77.60
2018-12-07T09:11:01.657Z,77.30
2018-12-07T09:13:27.893Z,77.20
2018-12-07T09:15:54.045Z,77.40
2018-12-07T09:18:20.183Z,77.60
2018-12-07T09:20:53.754Z,77.50
2018-12-07T09:23:14.548Z,78.00
2018-12-07T09:25:40.720Z,77.80
2018-12-07T09:28:06.888Z,77.60
2018-12-07T09:30:33.115Z,77.40
2018-12-07T09:32:59.333Z,77.80
2018-12-07T09:35:25.508Z,77.80
2018-12-07T09:37:51.665Z,77.90
2018-12-07T09:40:17.850Z,77.80
2018-12-07T09:42:44.151Z,77.70
2018-12-07T09:45:10.304Z,77.60
2018-12-07T09:47:36.440Z,78.00
2018-12-07T09:50:04.259Z,78.70
2018-12-07T09:52:30.436Z,78.60
2018-12-07T09:54:56.632Z,78.00
2018-12-07T09:57:22.867Z,77.30
2018-12-07T09:59:49.055Z,77.90
2018-12-07T10:02:15.235Z,77.00
2018-12-07T10:04:41.390Z,77.80
2018-12-07T10:07:07.552Z,77.30
2018-12-07T10:09:33.738Z,77.50
2018-12-07T10:12:00.067Z,78.10
2018-12-07T10:14:26.235Z,78.40
2018-12-07T10:16:52.391Z,78.20
2018-12-07T10:19:18.547Z,78.40
2018-12-07T10:21:44.740Z,78.20
2018-12-07T10:24:10.948Z,78.40
2018-12-07T10:26:37.173Z,78.80
2018-12-07T10:29:03.349Z,78.20
2018-12-07T10:31:29.543Z,78.20
2018-12-07T10:33:55.698Z,78.50
2018-12-07T10:36:21.868Z,78.90
2018-12-07T10:38:48.006Z,78.50
2018-12-07T10:41:14.200Z,78.60
2018-12-07T10:43:40.374Z,78.40
2018-12-07T10:46:06.542Z,78.40
2018-12-07T10:48:32.676Z,78.00
2018-12-07T10:50:58.855Z,78.20
2018-12-07T10:53:25.003Z,78.20
2018-12-07T10:55:51.189Z,77.90
2018-12-07T10:58:17.329Z,77.70
2018-12-07T11:00:49.647Z,77.80
2018-12-07T11:03:21.993Z,78.50
2018-12-07T11:06:09.943Z,77.90
2018-12-07T11:08:42.311Z,77.80
2018-12-07T11:11:14.727Z,77.70
2018-12-07T11:13:47.000Z,77.00
2018-12-07T11:19:26.795Z,77.70
2018-12-07T11:21:59.203Z,77.20
2018-12-07T11:24:31.545Z,76.90
2018-12-07T11:27:03.752Z,75.60
2018-12-07T11:29:36.226Z,76.10
2018-12-07T11:32:08.803Z,76.40
2018-12-07T11:34:35.821Z,75.70
2018-12-07T11:37:01.999Z,75.70
2018-12-07T11:39:28.229Z,75.80
2018-12-07T11:41:54.568Z,75.50
2018-12-07T11:44:20.715Z,75.70
2018-12-07T11:46:46.947Z,74.60
2018-12-07T11:49:13.124Z,74.40
2018-12-07T11:51:39.289Z,74.40
2018-12-07T11:54:05.469Z,74.30
2018-12-07T11:56:31.626Z,73.90
2018-12-07T11:58:57.839Z,72.50
2018-12-07T12:01:24.035Z,73.60
2018-12-07T12:03:50.292Z,73.40
2018-12-07T12:06:16.510Z,73.00
2018-12-07T12:08:42.660Z,71.90
2018-12-07T12:11:08.920Z,72.00
2018-12-07T12:13:35.087Z,72.30
2018-12-07T12:16:01.364Z,70.60
2018-12-07T12:18:27.527Z,70.40
2018-12-07T12:20:53.733Z,69.60
2018-12-07T12:23:19.892Z,70.00
2018-12-07T12:25:46.063Z,69.90
2018-12-07T12:28:12.227Z,70.50
2018-12-07T12:30:38.608Z,70.30
2018-12-07T12:33:04.796Z,70.40
2018-12-07T12:35:31.015Z,71.00
2018-12-07T12:37:57.316Z,71.20
2018-12-07T12:40:23.477Z,70.90
2018-12-07T12:42:49.659Z,70.60
2018-12-07T12:45:15.823Z,71.30
2018-12-07T12:47:42.021Z,71.40
2018-12-07T12:50:10.216Z,71.40
2018-12-07T12:52:36.410Z,71.50
2018-12-07T12:55:02.864Z,71.70
2018-12-07T12:57:29.031Z,72.10
2018-12-07T12:59:55.167Z,72.00
2018-12-07T13:02:21.335Z,72.60
2018-12-07T13:04:47.507Z,71.70
2018-12-07T13:07:13.687Z,72.50
2018-12-07T13:09:39.909Z,73.80
2018-12-07T13:12:06.121Z,75.10
2018-12-07T13:14:32.384Z,75.90
2018-12-07T13:16:58.547Z,76.80
2018-12-07T13:19:24.709Z,77.90
2018-12-07T13:21:50.954Z,78.10
2018-12-07T13:24:17.119Z,78.50
2018-12-07T13:26:43.298Z,78.70
2018-12-07T13:29:09.432Z,78.70
2018-12-07T13:31:35.660Z,78.60
2018-12-07T13:34:01.848Z,78.40
2018-12-07T13:36:28.081Z,78.80
2018-12-07T13:38:54.324Z,78.50
2018-12-07T13:41:20.634Z,78.40
2018-12-07T13:43:47.069Z,78.20
2018-12-07T13:46:13.418Z,77.20
2018-12-07T13:48:39.674Z,77.30
2018-12-07T13:51:06.502Z,77.60
2018-12-07T13:53:34.420Z,77.00
2018-12-07T13:56:00.798Z,77.40
2018-12-07T13:58:27.122Z,76.50
2018-12-07T14:00:53.451Z,76.40
2018-12-07T14:03:19.715Z,76.20
2018-12-07T14:05:46.015Z,76.20
2018-12-07T14:08:12.365Z,75.70
2018-12-07T14:10:38.626Z,75.30
2018-12-07T14:13:05.070Z,75.80
2018-12-07T14:15:31.310Z,74.80
2018-12-07T14:17:57.660Z,74.80
2018-12-07T14:20:23.977Z,74.60
2018-12-07T14:22:50.500Z,74.10
2018-12-07T14:25:16.747Z,74.00
2018-12-07T14:27:43.072Z,72.30
2018-12-07T14:30:09.588Z,72.20
2018-12-07T14:32:36.002Z,71.90
2018-12-07T14:35:02.747Z,70.60
2018-12-07T14:37:28.980Z,70.10
2018-12-07T14:39:55.313Z,70.10
2018-12-07T14:42:21.581Z,70.50
2018-12-07T14:44:47.764Z,70.40
2018-12-07T14:47:14.332Z,70.40
2018-12-07T14:49:40.882Z,70.10
2018-12-07T14:52:08.329Z,70.50
2018-12-07T14:54:35.124Z,71.20
2018-12-07T14:57:01.681Z,70.20
2018-12-07T14:59:28.155Z,69.80
2018-12-07T15:01:54.537Z,70.50
2018-12-07T15:04:20.983Z,69.60
2018-12-07T15:06:47.428Z,69.80
2018-12-07T15:09:13.579Z,69.30
2018-12-07T15:11:39.742Z,69.40
2018-12-07T15:14:06.037Z,69.60
2018-12-07T15:16:32.421Z,69.70
2018-12-07T15:18:58.756Z,69.60
2018-12-07T15:21:24.969Z,69.60
2018-12-07T15:23:51.303Z,69.70
2018-12-07T15:26:17.703Z,69.40
2018-12-07T15:28:44.235Z,69.40
2018-12-07T15:31:10.635Z,69.50
2018-12-07T15:33:37.012Z,69.70
2018-12-07T15:36:03.248Z,69.50
2018-12-07T15:38:29.610Z,69.30
2018-12-07T15:40:56.156Z,69.60
2018-12-07T15:43:22.537Z,69.50
2018-12-07T15:45:49.130Z,69.80
2018-12-07T15:48:16.520Z,69.60
2018-12-07T15:50:42.834Z,69.90
2018-12-07T15:53:09.124Z,69.40
2018-12-07T15:55:35.764Z,69.40
2018-12-07T15:58:02.285Z,69.80
2018-12-07T16:00:28.693Z,69.90
2018-12-07T16:02:55.166Z,69.60
2018-12-07T16:05:21.507Z,69.40
2018-12-07T16:07:47.889Z,69.50
2018-12-07T16:10:14.227Z,69.30
2018-12-07T16:12:41.150Z,69.10
2018-12-07T16:15:07.674Z,69.50
2018-12-07T16:17:34.006Z,68.80
2018-12-07T16:20:00.377Z,69.00
2018-12-07T16:22:26.592Z,69.30
2018-12-07T16:24:53.089Z,68.80
2018-12-07T16:27:19.419Z,69.40
2018-12-07T16:29:45.805Z,69.10
2018-12-07T16:32:12.269Z,69.10
2018-12-07T16:34:38.525Z,68.80
2018-12-07T16:37:04.944Z,68.60
2018-12-07T16:39:31.511Z,68.90
2018-12-07T16:41:57.888Z,68.20
2018-12-07T16:44:24.208Z,68.60
2018-12-07T16:46:50.501Z,68.20
2018-12-07T16:49:16.869Z,68.00
2018-12-07T16:51:43.343Z,67.50
2018-12-07T16:54:09.784Z,67.60
2018-12-07T16:56:36.411Z,67.70
2018-12-07T16:59:02.920Z,66.90
2018-12-07T17:01:29.303Z,66.60
2018-12-07T17:03:55.773Z,66.30
2018-12-07T17:06:22.199Z,66.50
2018-12-07T17:08:48.699Z,66.50
2018-12-07T17:11:15.115Z,66.80
2018-12-07T17:13:41.554Z,66.50
2018-12-07T17:16:07.867Z,66.20
2018-12-07T17:18:34.399Z,66.00
2018-12-07T17:21:00.670Z,66.30
2018-12-07T17:23:27.086Z,66.40
2018-12-07T17:25:53.413Z,66.50
2018-12-07T17:28:19.694Z,66.90
2018-12-07T17:30:46.053Z,66.90
2018-12-07T17:33:12.269Z,66.90
2018-12-07T17:35:38.657Z,66.90
2018-12-07T17:38:04.948Z,67.00
2018-12-07T17:40:38.253Z,67.00
2018-12-07T17:43:04.698Z,67.00
2018-12-07T17:45:31.126Z,67.00
2018-12-07T17:47:57.644Z,67.00
2018-12-07T17:50:23.859Z,67.00
2018-12-07T17:52:50.158Z,67.20
2018-12-07T17:55:16.547Z,68.80
2018-12-07T17:57:42.825Z,69.70
2018-12-07T18:00:11.337Z,70.10
2018-12-07T18:02:37.539Z,71.20
2018-12-07T18:05:05.031Z,71.50
2018-12-07T18:07:31.193Z,72.70
2018-12-07T18:09:57.498Z,72.80
2018-12-07T18:12:23.877Z,71.80
2018-12-07T18:14:50.357Z,71.70
2018-12-07T18:17:16.772Z,71.90
2018-12-07T18:19:43.098Z,71.90
2018-12-07T18:22:09.596Z,71.00
2018-12-07T18:24:36.103Z,71.40
2018-12-07T18:27:02.735Z,71.40
2018-12-07T18:29:29.111Z,71.50
2018-12-07T18:31:55.338Z,71.60
2018-12-07T18:34:21.718Z,71.80
2018-12-07T18:36:48.004Z,71.60
2018-12-07T18:39:14.796Z,72.20
2018-12-07T18:41:41.154Z,72.40
2018-12-07T18:44:07.712Z,72.60
2018-12-07T18:46:34.124Z,72.80
2018-12-07T18:49:00.629Z,72.90
2018-12-07T18:51:27.170Z,72.90
2018-12-07T18:53:53.402Z,73.10
2018-12-07T18:56:19.705Z,73.10
2018-12-07T18:58:46.107Z,73.40
2018-12-07T19:01:12.465Z,73.60
2018-12-07T19:03:39.087Z,73.70
2018-12-07T19:06:05.608Z,74.10
2018-12-07T19:08:31.987Z,74.50
2018-12-07T19:10:58.546Z,74.70
2018-12-07T19:13:25.010Z,75.60
2018-12-07T19:15:51.295Z,75.20
2018-12-07T19:18:17.527Z,75.40
2018-12-07T19:20:43.863Z,75.80
2018-12-07T19:23:10.169Z,76.10
2018-12-07T19:25:36.561Z,76.80
2018-12-07T19:28:02.862Z,77.50
2018-12-07T19:30:29.197Z,77.80
2018-12-07T19:32:55.564Z,78.50
2018-12-07T19:35:22.081Z,78.80
2018-12-07T19:37:48.381Z,79.10
2018-12-07T19:40:15.020Z,79.20
2018-12-07T19:42:41.377Z,79.40
2018-12-07T19:45:08.293Z,79.30
2018-12-07T19:47:34.819Z,79.20
2018-12-07T19:50:03.552Z,79.10
2018-12-07T19:52:29.920Z,79.40
2018-12-07T19:54:56.293Z,79.50
2018-12-07T19:57:22.716Z,79.20
2018-12-07T19:59:56.035Z,79.40
2018-12-07T20:02:22.434Z,79.50
2018-12-07T20:04:48.825Z,80.60
2018-12-07T20:07:15.097Z,81.80
2018-12-07T20:09:41.445Z,83.00
2018-12-07T20:12:08.185Z,84.40
2018-12-07T20:14:34.423Z,85.90
2018-12-07T20:17:00.642Z,87.20
2018-12-07T20:19:26.932Z,88.00
2018-12-07T20:21:53.218Z,88.50
2018-12-07T20:24:19.609Z,89.50
2018-12-07T20:26:46.115Z,89.60
2018-12-07T20:29:12.350Z,89.80
2018-12-07T20:31:38.583Z,89.70
2018-12-07T20:34:05.172Z,89.80
2018-12-07T20:36:31.513Z,89.70
2018-12-07T20:38:57.832Z,88.70
2018-12-07T20:41:24.141Z,86.60
2018-12-07T20:43:50.616Z,86.50
2018-12-07T20:46:17.223Z,86.00
2018-12-07T20:48:43.515Z,84.10
2018-12-07T20:51:17.026Z,84.20
2018-12-07T20:53:44.386Z,83.60
2018-12-07T20:56:11.020Z,83.00
2018-12-07T20:58:37.451Z,83.10
2018-12-07T21:01:03.879Z,82.60
2018-12-07T21:03:36.190Z,81.50
2018-12-07T21:09:24.187Z,79.90
2018-12-07T21:11:55.066Z,79.10
2018-12-07T21:14:22.347Z,79.50
2018-12-07T21:17:14.260Z,79.20
2018-12-07T21:19:45.511Z,79.30
2018-12-07T21:22:11.849Z,79.30
2018-12-07T21:24:38.380Z,79.20
2018-12-07T21:27:04.819Z,78.90
2018-12-07T21:29:31.121Z,79.30
2018-12-07T21:32:00.464Z,78.80
2018-12-07T21:37:26.145Z,78.20
2018-12-07T21:39:55.727Z,78.20
2018-12-07T21:42:22.236Z,78.70
2018-12-07T21:44:48.586Z,78.30
2018-12-07T21:47:15.352Z,78.10
2018-12-07T21:49:41.772Z,77.50
2018-12-07T21:52:12.969Z,77.40
2018-12-07T21:54:39.371Z,77.80
2018-12-07T21:57:05.767Z,78.20
2018-12-07T21:59:32.047Z,76.70
2018-12-07T22:01:58.534Z,77.20
2018-12-07T22:04:25.005Z,76.20
2018-12-07T22:06:51.410Z,75.90
2018-12-07T22:09:18.282Z,76.70
2018-12-07T22:11:46.964Z,75.60
2018-12-07T22:14:12.843Z,75.40
2018-12-07T22:16:39.046Z,75.80
2018-12-07T22:19:05.275Z,76.00
2018-12-07T22:21:31.697Z,75.30
2018-12-07T22:23:58.280Z,74.20
2018-12-07T22:26:24.584Z,75.30
2018-12-07T22:28:51.025Z,74.90
2018-12-07T22:31:17.299Z,74.90
2018-12-07T22:33:43.617Z,75.00
2018-12-07T22:36:10.145Z,74.20
2018-12-07T22:38:37.060Z,73.90
2018-12-07T22:41:10.427Z,74.00
2018-12-07T22:43:36.841Z,74.00
2018-12-07T22:46:03.200Z,72.50
2018-12-07T22:48:29.565Z,72.70
2018-12-07T22:50:55.754Z,72.90
2018-12-07T22:53:21.907Z,72.50
2018-12-07T22:55:48.110Z,72.20
2018-12-07T22:58:14.315Z,72.60
2018-12-07T23:00:43.093Z,71.90
2018-12-07T23:03:09.263Z,71.80
2018-12-07T23:05:35.515Z,71.40
2018-12-07T23:08:01.755Z,71.20
2018-12-07T23:10:27.919Z,71.40
2018-12-07T23:12:54.118Z,71.90
2018-12-07T23:15:20.311Z,71.40
2018-12-07T23:17:46.469Z,71.30
2018-12-07T23:20:12.641Z,71.40
2018-12-07T23:22:38.806Z,71.10
2018-12-07T23:25:05.306Z,71.00
2018-12-07T23:27:31.471Z,71.20
2018-12-07T23:30:04.520Z,71.10
2018-12-07T23:32:30.763Z,71.90
2018-12-07T23:34:56.919Z,71.40
2018-12-07T23:37:23.060Z,71.60
2018-12-07T23:39:49.231Z,71.40
2018-12-07T23:42:15.439Z,71.40
2018-12-07T23:44:41.713Z,71.60
2018-12-07T23:47:07.951Z,72.00
2018-12-07T23:49:34.114Z,72.30
2018-12-07T23:52:00.353Z,71.90
2018-12-07T23:54:26.556Z,72.40
2018-12-07T23:56:52.753Z,72.50
2018-12-07T23:59:18.926Z,72.40
